sensor_id;sensor_type;location;lat;lon;timestamp;pressure;altitude;pressure_sealevel;temperature;humidity
39197;BME280;42889;51.112;13.772;2023-01-27T00:00:34;99565.91;;;-1.89;100.00
39197;BME280;42889;51.112;13.772;2023-01-27T00:03:01;99567.31;;;-1.81;100.00
39197;BME280;42889;51.112;13.772;2023-01-27T00:05:28;99559.69;;;-1.88;100.00
39197;BME280;42889;51.112;13.772;2023-01-27T00:07:54;99559.06;;;-1.93;100.00
39197;BME280;42889;51.112;13.772;2023-01-27T00:10:24;99561.06;;;-1.98;100.00
39197;BME280;42889;51.112;13.772;2023-01-27T00:12:51;99554.72;;;-1.94;100.00
39197;BME280;42889;51.112;13.772;2023-01-27T00:15:37;99555.22;;;-1.86;100.00
39197;BME280;42889;51.112;13.772;2023-01-27T00:18:04;99546.03;;;-1.96;100.00
39197;BME280;42889;51.112;13.772;2023-01-27T00:20:32;99549.38;;;-1.92;100.00
39197;BME280;42889;51.112;13.772;2023-01-27T00:23:21;99550.09;;;-1.89;100.00
39197;BME280;42889;51.112;13.772;2023-01-27T00:26:10;99550.25;;;-1.92;100.00
39197;BME280;42889;51.112;13.772;2023-01-27T00:28:40;99549.78;;;-2.01;100.00
39197;BME280;42889;51.112;13.772;2023-01-27T00:31:08;99544.66;;;-2.04;100.00
39197;BME280;42889;51.112;13.772;2023-01-27T00:33:55;99542.88;;;-2.04;100.00
39197;BME280;42889;51.112;13.772;2023-01-27T00:36:28;99542.88;;;-2.04;100.00
39197;BME280;42889;51.112;13.772;2023-01-27T00:38:55;99536.69;;;-1.84;100.00
39197;BME280;42889;51.112;13.772;2023-01-27T00:41:22;99546.88;;;-1.95;100.00
39197;BME280;42889;51.112;13.772;2023-01-27T00:43:51;99554.41;;;-1.88;100.00
39197;BME280;42889;51.112;13.772;2023-01-27T00:46:20;99558.34;;;-1.77;100.00
39197;BME280;42889;51.112;13.772;2023-01-27T00:48:47;99550.66;;;-1.82;100.00
39197;BME280;42889;51.112;13.772;2023-01-27T00:51:14;99556.00;;;-1.83;100.00
39197;BME280;42889;51.112;13.772;2023-01-27T00:53:42;99559.69;;;-1.88;100.00
39197;BME280;42889;51.112;13.772;2023-01-27T00:56:09;99552.13;;;-1.76;100.00
39197;BME280;42889;51.112;13.772;2023-01-27T00:58:36;99549.94;;;-1.86;100.00
39197;BME280;42889;51.112;13.772;2023-01-27T01:01:05;99549.59;;;-1.97;100.00
39197;BME280;42889;51.112;13.772;2023-01-27T01:03:34;99548.81;;;-1.80;100.00
39197;BME280;42889;51.112;13.772;2023-01-27T01:06:04;99554.59;;;-1.91;100.00
39197;BME280;42889;51.112;13.772;2023-01-27T01:08:32;99561.84;;;-1.77;100.00
39197;BME280;42889;51.112;13.772;2023-01-27T01:11:01;99554.00;;;-1.78;100.00
39197;BME280;42889;51.112;13.772;2023-01-27T01:13:28;99554.44;;;-1.69;100.00
39197;BME280;42889;51.112;13.772;2023-01-27T01:15:55;99556.28;;;-1.71;100.00
39197;BME280;42889;51.112;13.772;2023-01-27T01:18:23;99557.84;;;-1.67;100.00
39197;BME280;42889;51.112;13.772;2023-01-27T01:20:49;99555.59;;;-1.74;100.00
39197;BME280;42889;51.112;13.772;2023-01-27T01:23:16;99556.28;;;-1.71;100.00
39197;BME280;42889;51.112;13.772;2023-01-27T01:25:51;99558.44;;;-1.79;100.00
39197;BME280;42889;51.112;13.772;2023-01-27T01:28:19;99564.84;;;-1.84;100.00
39197;BME280;42889;51.112;13.772;2023-01-27T01:30:45;99559.28;;;-1.78;100.00
39197;BME280;42889;51.112;13.772;2023-01-27T01:33:12;99551.38;;;-1.78;100.00
39197;BME280;42889;51.112;13.772;2023-01-27T01:35:39;99544.09;;;-1.73;100.00
39197;BME280;42889;51.112;13.772;2023-01-27T01:38:08;99554.78;;;-1.76;100.00
39197;BME280;42889;51.112;13.772;2023-01-27T01:40:42;99552.75;;;-1.70;100.00
39197;BME280;42889;51.112;13.772;2023-01-27T01:43:16;99557.13;;;-1.89;100.00
39197;BME280;42889;51.112;13.772;2023-01-27T01:45:52;99560.13;;;-1.78;100.00
39197;BME280;42889;51.112;13.772;2023-01-27T01:48:27;99550.50;;;-1.79;100.00
39197;BME280;42889;51.112;13.772;2023-01-27T01:51:14;99557.16;;;-1.70;100.00
39197;BME280;42889;51.112;13.772;2023-01-27T01:56:16;99565.19;;;-1.73;100.00
39197;BME280;42889;51.112;13.772;2023-01-27T01:58:45;99558.91;;;-1.71;100.00
39197;BME280;42889;51.112;13.772;2023-01-27T02:01:14;99565.63;;;-1.82;100.00
39197;BME280;42889;51.112;13.772;2023-01-27T02:03:46;99566.75;;;-1.88;100.00
39197;BME280;42889;51.112;13.772;2023-01-27T02:06:13;99558.72;;;-1.85;100.00
39197;BME280;42889;51.112;13.772;2023-01-27T02:08:43;99561.91;;;-1.78;100.00
39197;BME280;42889;51.112;13.772;2023-01-27T02:11:11;99568.78;;;-1.74;100.00
39197;BME280;42889;51.112;13.772;2023-01-27T02:13:38;99564.63;;;-1.80;100.00
39197;BME280;42889;51.112;13.772;2023-01-27T02:16:07;99569.34;;;-1.87;100.00
39197;BME280;42889;51.112;13.772;2023-01-27T02:18:34;99559.34;;;-1.99;100.00
39197;BME280;42889;51.112;13.772;2023-01-27T02:21:01;99564.41;;;-1.94;100.00
39197;BME280;42889;51.112;13.772;2023-01-27T02:23:48;99568.97;;;-1.79;100.00
39197;BME280;42889;51.112;13.772;2023-01-27T02:26:27;99564.69;;;-1.81;100.00
39197;BME280;42889;51.112;13.772;2023-01-27T02:29:04;99568.22;;;-1.81;100.00
39197;BME280;42889;51.112;13.772;2023-01-27T02:31:31;99564.63;;;-1.80;100.00
39197;BME280;42889;51.112;13.772;2023-01-27T02:34:05;99563.91;;;-1.83;100.00
39197;BME280;42889;51.112;13.772;2023-01-27T02:36:37;99568.13;;;-1.79;100.00
39197;BME280;42889;51.112;13.772;2023-01-27T02:39:08;99558.00;;;-1.70;100.00
39197;BME280;42889;51.112;13.772;2023-01-27T02:41:41;99572.25;;;-1.74;100.00
39197;BME280;42889;51.112;13.772;2023-01-27T02:44:09;99572.25;;;-1.93;100.00
39197;BME280;42889;51.112;13.772;2023-01-27T02:46:37;99573.03;;;-1.91;100.00
39197;BME280;42889;51.112;13.772;2023-01-27T02:49:05;99580.09;;;-1.91;100.00
39197;BME280;42889;51.112;13.772;2023-01-27T02:51:33;99579.34;;;-1.74;100.00
39197;BME280;42889;51.112;13.772;2023-01-27T02:54:00;99583.47;;;-1.69;100.00
39197;BME280;42889;51.112;13.772;2023-01-27T02:56:27;99579.63;;;-1.80;100.00
39197;BME280;42889;51.112;13.772;2023-01-27T02:58:55;99590.44;;;-1.68;100.00
39197;BME280;42889;51.112;13.772;2023-01-27T03:01:28;99584.09;;;-1.82;100.00
39197;BME280;42889;51.112;13.772;2023-01-27T03:03:58;99586.34;;;-1.94;100.00
39197;BME280;42889;51.112;13.772;2023-01-27T03:06:25;99586.22;;;-1.91;100.00
39197;BME280;42889;51.112;13.772;2023-01-27T03:08:52;99583.03;;;-1.78;100.00
39197;BME280;42889;51.112;13.772;2023-01-27T03:11:19;99579.63;;;-1.80;100.00
39197;BME280;42889;51.112;13.772;2023-01-27T03:14:07;99581.69;;;-1.68;100.00
39197;BME280;42889;51.112;13.772;2023-01-27T03:16:34;99574.97;;;-1.75;100.00
39197;BME280;42889;51.112;13.772;2023-01-27T03:19:19;99577.09;;;-1.83;100.00
39197;BME280;42889;51.112;13.772;2023-01-27T03:21:45;99576.03;;;-1.79;100.00
39197;BME280;42889;51.112;13.772;2023-01-27T03:24:16;99576.13;;;-1.81;100.00
39197;BME280;42889;51.112;13.772;2023-01-27T03:26:43;99585.09;;;-1.85;100.00
39197;BME280;42889;51.112;13.772;2023-01-27T03:29:13;99587.16;;;-1.73;100.00
39197;BME280;42889;51.112;13.772;2023-01-27T03:31:59;99585.59;;;-1.77;100.00
39197;BME280;42889;51.112;13.772;2023-01-27T03:34:27;99580.66;;;-1.84;100.00
39197;BME280;42889;51.112;13.772;2023-01-27T03:37:02;99583.09;;;-1.80;100.00
39197;BME280;42889;51.112;13.772;2023-01-27T03:39:47;99585.78;;;-1.81;100.00
39197;BME280;42889;51.112;13.772;2023-01-27T03:42:32;99595.38;;;-1.79;100.00
39197;BME280;42889;51.112;13.772;2023-01-27T03:45:17;99588.50;;;-1.83;100.00
39197;BME280;42889;51.112;13.772;2023-01-27T03:48:03;99596.44;;;-1.83;100.00
39197;BME280;42889;51.112;13.772;2023-01-27T03:50:29;99598.56;;;-1.72;100.00
39197;BME280;42889;51.112;13.772;2023-01-27T03:53:04;99600.91;;;-1.85;100.00
39197;BME280;42889;51.112;13.772;2023-01-27T03:55:32;99594.72;;;-1.84;100.00
39197;BME280;42889;51.112;13.772;2023-01-27T03:58:00;99593.28;;;-1.91;100.00
39197;BME280;42889;51.112;13.772;2023-01-27T04:01:00;99596.34;;;-1.81;100.00
39197;BME280;42889;51.112;13.772;2023-01-27T04:03:30;99600.91;;;-1.85;100.00
39197;BME280;42889;51.112;13.772;2023-01-27T04:06:24;99597.00;;;-1.76;100.00
39197;BME280;42889;51.112;13.772;2023-01-27T04:09:11;99593.28;;;-1.91;100.00
39197;BME280;42889;51.112;13.772;2023-01-27T04:11:38;99598.13;;;-1.82;100.00
39197;BME280;42889;51.112;13.772;2023-01-27T04:17:01;99597.22;;;-1.81;100.00
39197;BME280;42889;51.112;13.772;2023-01-27T04:19:28;99600.75;;;-1.82;100.00
39197;BME280;42889;51.112;13.772;2023-01-27T04:21:56;99597.00;;;-1.76;100.00
39197;BME280;42889;51.112;13.772;2023-01-27T04:24:23;99591.03;;;-1.80;100.00
39197;BME280;42889;51.112;13.772;2023-01-27T04:26:57;99584.66;;;-1.76;100.00
39197;BME280;42889;51.112;13.772;2023-01-27T04:29:28;99593.50;;;-1.77;100.00
39197;BME280;42889;51.112;13.772;2023-01-27T04:31:55;99585.03;;;-1.83;100.00
39197;BME280;42889;51.112;13.772;2023-01-27T04:34:24;99582.09;;;-1.77;100.00
39197;BME280;42889;51.112;13.772;2023-01-27T04:36:52;99588.09;;;-1.74;100.00
39197;BME280;42889;51.112;13.772;2023-01-27T04:39:19;99587.16;;;-1.73;100.00
39197;BME280;42889;51.112;13.772;2023-01-27T04:41:46;99588.81;;;-1.70;100.00
39197;BME280;42889;51.112;13.772;2023-01-27T04:44:14;99586.19;;;-1.70;100.00
39197;BME280;42889;51.112;13.772;2023-01-27T04:46:41;99588.88;;;-1.72;100.00
39197;BME280;42889;51.112;13.772;2023-01-27T04:49:09;99576.91;;;-1.79;100.00
39197;BME280;42889;51.112;13.772;2023-01-27T04:51:36;99587.81;;;-1.68;100.00
39197;BME280;42889;51.112;13.772;2023-01-27T04:54:03;99586.53;;;-1.78;100.00
39197;BME280;42889;51.112;13.772;2023-01-27T04:56:33;99579.53;;;-1.79;100.00
39197;BME280;42889;51.112;13.772;2023-01-27T04:59:02;99577.84;;;-1.80;100.00
39197;BME280;42889;51.112;13.772;2023-01-27T05:01:30;99574.38;;;-1.82;100.00
39197;BME280;42889;51.112;13.772;2023-01-27T05:03:56;99581.25;;;-1.78;100.00
39197;BME280;42889;51.112;13.772;2023-01-27T05:06:24;99581.66;;;-1.87;100.00
39197;BME280;42889;51.112;13.772;2023-01-27T05:08:51;99584.16;;;-1.84;100.00
39197;BME280;42889;51.112;13.772;2023-01-27T05:11:18;99588.22;;;-1.77;100.00
39197;BME280;42889;51.112;13.772;2023-01-27T05:13:45;99587.72;;;-1.85;100.00
39197;BME280;42889;51.112;13.772;2023-01-27T05:16:15;99588.50;;;-1.83;100.00
39197;BME280;42889;51.112;13.772;2023-01-27T05:18:43;99594.72;;;-1.84;100.00
39197;BME280;42889;51.112;13.772;2023-01-27T05:21:13;99589.88;;;-1.74;100.00
39197;BME280;42889;51.112;13.772;2023-01-27T05:23:40;99588.78;;;-1.89;100.00
39197;BME280;42889;51.112;13.772;2023-01-27T05:26:19;99587.81;;;-1.68;100.00
39197;BME280;42889;51.112;13.772;2023-01-27T05:28:47;99594.09;;;-1.70;100.00
39197;BME280;42889;51.112;13.772;2023-01-27T05:31:17;99596.78;;;-1.72;100.00
39197;BME280;42889;51.112;13.772;2023-01-27T05:33:44;99594.03;;;-1.69;100.00
39197;BME280;42889;51.112;13.772;2023-01-27T05:36:13;99590.84;;;-1.77;100.00
39197;BME280;42889;51.112;13.772;2023-01-27T05:38:40;99606.56;;;-1.74;100.00
39197;BME280;42889;51.112;13.772;2023-01-27T05:41:08;99612.63;;;-1.72;100.00
39197;BME280;42889;51.112;13.772;2023-01-27T05:43:38;99607.50;;;-1.75;100.00
39197;BME280;42889;51.112;13.772;2023-01-27T05:48:37;99614.75;;;-1.80;100.00
39197;BME280;42889;51.112;13.772;2023-01-27T05:51:04;99620.59;;;-1.73;100.00
39197;BME280;42889;51.112;13.772;2023-01-27T05:53:32;99625.47;;;-1.64;100.00
39197;BME280;42889;51.112;13.772;2023-01-27T05:55:59;99633.09;;;-1.58;100.00
39197;BME280;42889;51.112;13.772;2023-01-27T05:58:26;99636.81;;;-1.62;100.00
39197;BME280;42889;51.112;13.772;2023-01-27T06:00:53;99638.72;;;-1.66;100.00
39197;BME280;42889;51.112;13.772;2023-01-27T06:03:20;99639.66;;;-1.67;100.00
39197;BME280;42889;51.112;13.772;2023-01-27T06:05:55;99629.19;;;-1.68;100.00
39197;BME280;42889;51.112;13.772;2023-01-27T06:08:23;99628.25;;;-1.67;100.00
39197;BME280;42889;51.112;13.772;2023-01-27T06:10:51;99634.25;;;-1.64;100.00
39197;BME280;42889;51.112;13.772;2023-01-27T06:13:21;99639.56;;;-1.65;100.00
39197;BME280;42889;51.112;13.772;2023-01-27T06:15:49;99643.09;;;-1.65;100.00
39197;BME280;42889;51.112;13.772;2023-01-27T06:18:17;99631.31;;;-1.57;100.00
39197;BME280;42889;51.112;13.772;2023-01-27T06:20:45;99638.94;;;-1.70;100.00
39197;BME280;42889;51.112;13.772;2023-01-27T06:23:13;99636.88;;;-1.64;100.00
39197;BME280;42889;51.112;13.772;2023-01-27T06:25:46;99645.56;;;-1.62;100.00
39197;BME280;42889;51.112;13.772;2023-01-27T06:28:14;99649.88;;;-1.59;100.00
39197;BME280;42889;51.112;13.772;2023-01-27T06:30:54;99653.78;;;-1.68;100.00
39197;BME280;42889;51.112;13.772;2023-01-27T06:33:22;99646.06;;;-1.72;100.00
39197;BME280;42889;51.112;13.772;2023-01-27T06:35:48;99654.28;;;-1.60;100.00
39197;BME280;42889;51.112;13.772;2023-01-27T06:38:15;99657.28;;;-1.67;100.00
39197;BME280;42889;51.112;13.772;2023-01-27T06:40:42;99654.44;;;-1.63;100.00
39197;BME280;42889;51.112;13.772;2023-01-27T06:43:13;99652.16;;;-1.51;100.00
39197;BME280;42889;51.112;13.772;2023-01-27T06:45:39;99656.88;;;-1.58;100.00
39197;BME280;42889;51.112;13.772;2023-01-27T06:48:06;99655.00;;;-1.56;100.00
39197;BME280;42889;51.112;13.772;2023-01-27T06:50:34;99649.00;;;-1.60;100.00
39197;BME280;42889;51.112;13.772;2023-01-27T06:53:04;99658.41;;;-1.54;100.00
39197;BME280;42889;51.112;13.772;2023-01-27T06:55:32;99652.72;;;-1.64;100.00
39197;BME280;42889;51.112;13.772;2023-01-27T06:58:00;99661.41;;;-1.62;100.00
39197;BME280;42889;51.112;13.772;2023-01-27T07:00:27;99666.88;;;-1.66;100.00
39197;BME280;42889;51.112;13.772;2023-01-27T07:02:54;99669.03;;;-1.55;100.00
39197;BME280;42889;51.112;13.772;2023-01-27T07:05:21;99676.97;;;-1.55;100.00
39197;BME280;42889;51.112;13.772;2023-01-27T07:07:48;99680.53;;;-1.56;100.00
39197;BME280;42889;51.112;13.772;2023-01-27T07:10:15;99673.75;;;-1.62;100.00
39197;BME280;42889;51.112;13.772;2023-01-27T07:12:42;99673.09;;;-1.67;100.00
39197;BME280;42889;51.112;13.772;2023-01-27T07:15:09;99689.00;;;-1.69;100.00
39197;BME280;42889;51.112;13.772;2023-01-27T07:17:36;99685.03;;;-1.58;100.00
39197;BME280;42889;51.112;13.772;2023-01-27T07:20:04;99685.94;;;-1.60;100.00
39197;BME280;42889;51.112;13.772;2023-01-27T07:22:31;99683.91;;;-1.53;100.00
39197;BME280;42889;51.112;13.772;2023-01-27T07:24:57;99676.03;;;-1.54;100.00
39197;BME280;42889;51.112;13.772;2023-01-27T07:27:24;99673.19;;;-1.69;100.00
39197;BME280;42889;51.112;13.772;2023-01-27T07:29:51;99692.88;;;-1.57;100.00
39197;BME280;42889;51.112;13.772;2023-01-27T07:32:18;99695.34;;;-1.54;100.00
39197;BME280;42889;51.112;13.772;2023-01-27T07:34:45;99695.91;;;-1.66;100.00
39197;BME280;42889;51.112;13.772;2023-01-27T07:37:12;99692.31;;;-1.64;100.00
39197;BME280;42889;51.112;13.772;2023-01-27T07:39:39;99695.88;;;-1.65;100.00
39197;BME280;42889;51.112;13.772;2023-01-27T07:42:07;99694.28;;;-1.69;100.00
39197;BME280;42889;51.112;13.772;2023-01-27T07:44:35;99701.28;;;-1.68;100.00
39197;BME280;42889;51.112;13.772;2023-01-27T07:47:01;99694.78;;;-1.61;100.00
39197;BME280;42889;51.112;13.772;2023-01-27T07:49:28;99694.28;;;-1.69;100.00
39197;BME280;42889;51.112;13.772;2023-01-27T07:51:55;99703.38;;;-1.76;100.00
39197;BME280;42889;51.112;13.772;2023-01-27T07:54:21;99699.69;;;-1.72;100.00
39197;BME280;42889;51.112;13.772;2023-01-27T07:56:48;99700.13;;;-1.81;100.00
39197;BME280;42889;51.112;13.772;2023-01-27T07:59:14;99709.91;;;-1.64;100.00
39197;BME280;42889;51.112;13.772;2023-01-27T08:01:41;99715.66;;;-1.75;100.00
39197;BME280;42889;51.112;13.772;2023-01-27T08:04:08;99710.78;;;-1.64;100.00
39197;BME280;42889;51.112;13.772;2023-01-27T08:06:38;99710.91;;;-1.67;100.00
39197;BME280;42889;51.112;13.772;2023-01-27T08:09:05;99713.59;;;-1.68;100.00
39197;BME280;42889;51.112;13.772;2023-01-27T08:11:32;99724.25;;;-1.70;100.00
39197;BME280;42889;51.112;13.772;2023-01-27T08:13:59;99723.03;;;-1.63;100.00
39197;BME280;42889;51.112;13.772;2023-01-27T08:16:26;99721.84;;;-1.76;100.00
39197;BME280;42889;51.112;13.772;2023-01-27T08:18:53;99732.09;;;-1.68;100.00
39197;BME280;42889;51.112;13.772;2023-01-27T08:21:20;99723.63;;;-1.76;100.00
39197;BME280;42889;51.112;13.772;2023-01-27T08:23:47;99728.66;;;-1.70;100.00
39197;BME280;42889;51.112;13.772;2023-01-27T08:26:13;99739.66;;;-1.61;100.00
39197;BME280;42889;51.112;13.772;2023-01-27T08:28:40;99736.06;;;-1.60;100.00
39197;BME280;42889;51.112;13.772;2023-01-27T08:31:10;99743.09;;;-1.79;100.00
39197;BME280;42889;51.112;13.772;2023-01-27T08:33:38;99739.91;;;-1.67;100.00
39197;BME280;42889;51.112;13.772;2023-01-27T08:36:07;99748.09;;;-1.73;100.00
39197;BME280;42889;51.112;13.772;2023-01-27T08:38:34;99747.72;;;-1.64;100.00
39197;BME280;42889;51.112;13.772;2023-01-27T08:41:08;99738.09;;;-1.65;100.00
39197;BME280;42889;51.112;13.772;2023-01-27T08:43:36;99744.16;;;-1.63;100.00
39197;BME280;42889;51.112;13.772;2023-01-27T08:46:03;99744.22;;;-1.64;100.00
39197;BME280;42889;51.112;13.772;2023-01-27T08:48:30;99743.75;;;-1.53;100.00
39197;BME280;42889;51.112;13.772;2023-01-27T08:50:58;99741.16;;;-1.55;100.00
39197;BME280;42889;51.112;13.772;2023-01-27T08:53:26;99739.53;;;-1.57;100.00
39197;BME280;42889;51.112;13.772;2023-01-27T08:55:55;99741.22;;;-1.56;100.00
39197;BME280;42889;51.112;13.772;2023-01-27T08:58:23;99745.06;;;-1.64;100.00
39197;BME280;42889;51.112;13.772;2023-01-27T09:00:50;99748.41;;;-1.60;100.00
39197;BME280;42889;51.112;13.772;2023-01-27T09:03:17;99748.41;;;-1.60;100.00
39197;BME280;42889;51.112;13.772;2023-01-27T09:05:46;99757.41;;;-1.64;100.00
39197;BME280;42889;51.112;13.772;2023-01-27T09:08:12;99757.88;;;-1.75;100.00
39197;BME280;42889;51.112;13.772;2023-01-27T09:10:41;99750.56;;;-1.68;100.00
39197;BME280;42889;51.112;13.772;2023-01-27T09:13:08;99753.94;;;-1.65;100.00
39197;BME280;42889;51.112;13.772;2023-01-27T09:15:35;99755.75;;;-1.67;100.00
39197;BME280;42889;51.112;13.772;2023-01-27T09:18:03;99753.38;;;-1.73;100.00
39197;BME280;42889;51.112;13.772;2023-01-27T09:20:32;99755.91;;;-1.70;100.00
39197;BME280;42889;51.112;13.772;2023-01-27T09:22:59;99759.91;;;-1.61;100.00
39197;BME280;42889;51.112;13.772;2023-01-27T09:25:26;99751.06;;;-1.60;100.00
39197;BME280;42889;51.112;13.772;2023-01-27T09:27:57;99753.97;;;-1.66;100.00
39197;BME280;42889;51.112;13.772;2023-01-27T09:30:25;99754.06;;;-1.49;100.00
39197;BME280;42889;51.112;13.772;2023-01-27T09:32:57;99761.13;;;-1.49;100.00
39197;BME280;42889;51.112;13.772;2023-01-27T09:35:24;99763.13;;;-1.54;100.00
39197;BME280;42889;51.112;13.772;2023-01-27T09:37:56;99769.50;;;-1.58;100.00
39197;BME280;42889;51.112;13.772;2023-01-27T09:45:42;99768.28;;;-1.51;100.00
39197;BME280;42889;51.112;13.772;2023-01-27T09:48:15;99766.38;;;-1.48;100.00
39197;BME280;42889;51.112;13.772;2023-01-27T09:50:54;99771.03;;;-1.34;100.00
39197;BME280;42889;51.112;13.772;2023-01-27T09:59:10;99771.50;;;-1.45;100.00
39197;BME280;42889;51.112;13.772;2023-01-27T10:07:40;99771.47;;;-1.24;100.00
39197;BME280;42889;51.112;13.772;2023-01-27T10:18:32;99772.91;;;-1.17;100.00
39197;BME280;42889;51.112;13.772;2023-01-27T10:21:20;99767.97;;;-1.25;100.00
39197;BME280;42889;51.112;13.772;2023-01-27T10:26:35;99772.41;;;-1.25;100.00
39197;BME280;42889;51.112;13.772;2023-01-27T10:29:15;99764.66;;;-1.10;100.00
39197;BME280;42889;51.112;13.772;2023-01-27T10:32:14;99763.16;;;-1.15;100.00
39197;BME280;42889;51.112;13.772;2023-01-27T10:34:49;99768.78;;;-1.04;100.00
39197;BME280;42889;51.112;13.772;2023-01-27T10:39:54;99767.91;;;-1.04;100.00
39197;BME280;42889;51.112;13.772;2023-01-27T10:49:05;99770.19;;;-1.16;100.00
39197;BME280;42889;51.112;13.772;2023-01-27T10:51:22;99761.28;;;-1.13;100.00
39197;BME280;42889;51.112;13.772;2023-01-27T10:59:08;99768.84;;;-1.06;100.00
39197;BME280;42889;51.112;13.772;2023-01-27T11:01:50;99774.63;;;-1.16;100.00
39197;BME280;42889;51.112;13.772;2023-01-27T11:04:41;99781.41;;;-1.11;100.00
39197;BME280;42889;51.112;13.772;2023-01-27T11:07:19;99778.63;;;-1.08;100.00
39197;BME280;42889;51.112;13.772;2023-01-27T11:09:53;99779.84;;;-1.15;100.00
39197;BME280;42889;51.112;13.772;2023-01-27T11:12:29;99786.75;;;-1.12;100.00
39197;BME280;42889;51.112;13.772;2023-01-27T11:14:57;99783.25;;;-0.94;100.00
39197;BME280;42889;51.112;13.772;2023-01-27T11:17:44;99771.06;;;-0.96;100.00
39197;BME280;42889;51.112;13.772;2023-01-27T11:23:17;99779.47;;;-0.88;100.00
39197;BME280;42889;51.112;13.772;2023-01-27T11:31:39;99771.28;;;-1.01;100.00
39197;BME280;42889;51.112;13.772;2023-01-27T11:34:20;99768.00;;;-0.87;100.00
39197;BME280;42889;51.112;13.772;2023-01-27T11:36:50;99765.13;;;-0.83;100.00
39197;BME280;42889;51.112;13.772;2023-01-27T11:39:17;99766.22;;;-0.87;100.00
39197;BME280;42889;51.112;13.772;2023-01-27T11:41:54;99767.66;;;-0.98;100.00
39197;BME280;42889;51.112;13.772;2023-01-27T11:44:28;99759.34;;;-0.91;100.00
39197;BME280;42889;51.112;13.772;2023-01-27T11:46:57;99761.72;;;-0.85;100.00
39197;BME280;42889;51.112;13.772;2023-01-27T11:49:25;99761.88;;;-0.88;100.00
39197;BME280;42889;51.112;13.772;2023-01-27T11:52:00;99755.38;;;-0.81;100.00
39197;BME280;42889;51.112;13.772;2023-01-27T11:54:55;99756.34;;;-0.83;100.00
39197;BME280;42889;51.112;13.772;2023-01-27T11:57:25;99760.84;;;-0.85;100.00
39197;BME280;42889;51.112;13.772;2023-01-27T11:59:57;99761.28;;;-0.75;100.00
39197;BME280;42889;51.112;13.772;2023-01-27T12:02:41;99756.44;;;-0.85;100.00
39197;BME280;42889;51.112;13.772;2023-01-27T12:05:26;99749.81;;;-0.93;100.00
39197;BME280;42889;51.112;13.772;2023-01-27T12:08:00;99750.72;;;-0.94;100.00
39197;BME280;42889;51.112;13.772;2023-01-27T12:10:38;99749.50;;;-0.87;100.00
39197;BME280;42889;51.112;13.772;2023-01-27T12:13:15;99735.63;;;-0.73;100.00
39197;BME280;42889;51.112;13.772;2023-01-27T12:15:49;99731.84;;;-0.68;100.00
39197;BME280;42889;51.112;13.772;2023-01-27T12:18:18;99737.63;;;-0.78;100.00
39197;BME280;42889;51.112;13.772;2023-01-27T12:21:02;99731.72;;;-0.84;100.00
39197;BME280;42889;51.112;13.772;2023-01-27T12:23:35;99729.78;;;-0.80;100.00
39197;BME280;42889;51.112;13.772;2023-01-27T12:26:08;99735.56;;;-0.72;100.00
39197;BME280;42889;51.112;13.772;2023-01-27T12:28:41;99730.56;;;-0.78;100.00
39197;BME280;42889;51.112;13.772;2023-01-27T12:31:17;99716.28;;;-0.74;100.00
39197;BME280;42889;51.112;13.772;2023-01-27T12:33:57;99728.09;;;-0.81;100.00
39197;BME280;42889;51.112;13.772;2023-01-27T12:36:24;99723.13;;;-0.70;100.00
39197;BME280;42889;51.112;13.772;2023-01-27T12:38:57;99740.84;;;-0.72;100.00
39197;BME280;42889;51.112;13.772;2023-01-27T12:41:32;99728.13;;;-0.64;100.00
39197;BME280;42889;51.112;13.772;2023-01-27T12:44:14;99727.34;;;-0.66;100.00
39197;BME280;42889;51.112;13.772;2023-01-27T12:46:56;99731.31;;;-0.57;100.00
39197;BME280;42889;51.112;13.772;2023-01-27T12:49:31;99734.34;;;-0.65;100.00
39197;BME280;42889;51.112;13.772;2023-01-27T12:52:01;99735.13;;;-0.63;100.00
39197;BME280;42889;51.112;13.772;2023-01-27T12:54:30;99736.78;;;-0.60;100.00
39197;BME280;42889;51.112;13.772;2023-01-27T12:57:03;99732.56;;;-0.64;100.00
39197;BME280;42889;51.112;13.772;2023-01-27T12:59:32;99733.25;;;-0.61;100.00
39197;BME280;42889;51.112;13.772;2023-01-27T13:02:16;99729.78;;;-0.80;100.00
39197;BME280;42889;51.112;13.772;2023-01-27T13:04:53;99718.16;;;-0.76;100.00
39197;BME280;42889;51.112;13.772;2023-01-27T13:07:24;99719.47;;;-0.67;100.00
39197;BME280;42889;51.112;13.772;2023-01-27T13:09:58;99716.06;;;-0.69;100.00
39197;BME280;42889;51.112;13.772;2023-01-27T13:12:31;99719.03;;;-0.58;100.00
39197;BME280;42889;51.112;13.772;2023-01-27T13:15:14;99722.41;;;-0.55;100.00
39197;BME280;42889;51.112;13.772;2023-01-27T13:17:44;99728.47;;;-0.52;100.00
39197;BME280;42889;51.112;13.772;2023-01-27T13:22:48;99725.31;;;-0.61;100.00
39197;BME280;42889;51.112;13.772;2023-01-27T13:25:20;99734.59;;;-0.52;100.00
39197;BME280;42889;51.112;13.772;2023-01-27T13:27:50;99726.88;;;-0.57;100.00
39197;BME280;42889;51.112;13.772;2023-01-27T13:30:29;99734.75;;;-0.55;100.00
39197;BME280;42889;51.112;13.772;2023-01-27T13:33:10;99726.47;;;-0.66;100.00
39197;BME280;42889;51.112;13.772;2023-01-27T13:35:50;99726.81;;;-0.55;100.00
39197;BME280;42889;51.112;13.772;2023-01-27T13:38:24;99723.31;;;-0.56;100.00
39197;BME280;42889;51.112;13.772;2023-01-27T13:40:55;99721.53;;;-0.55;100.00
39197;BME280;42889;51.112;13.772;2023-01-27T13:43:29;99722.75;;;-0.43;100.00
39197;BME280;42889;51.112;13.772;2023-01-27T13:46:16;99724.75;;;-0.48;100.00
39197;BME280;42889;51.112;13.772;2023-01-27T13:48:49;99727.59;;;-0.53;100.00
39197;BME280;42889;51.112;13.772;2023-01-27T13:51:21;99731.03;;;-0.51;100.00
39197;BME280;42889;51.112;13.772;2023-01-27T13:53:58;99728.78;;;-0.41;100.00
39197;BME280;42889;51.112;13.772;2023-01-27T13:56:42;99731.22;;;-0.37;100.00
39197;BME280;42889;51.112;13.772;2023-01-27T13:59:58;99730.13;;;-0.33;100.00
39197;BME280;42889;51.112;13.772;2023-01-27T14:11:09;99722.97;;;-0.31;100.00